Time;durP1;ratioP1;P1;durP2;ratioP2;P2;SDS_P1;SDS_P2;PMS_P1;PMS_P2;Temp;Humidity;BMP_temperature;BMP_pressure;BME280_temperature;BME280_humidity;BME280_pressure;Samples;Min_cycle;Max_cycle;Signal;HPM_P1;HPM_P2
2021/06/03 00:02:20;;;;;;;16.87;6.30;;;;;;;15.04;62.70;100678.41;4916434;29;20084;-62
2021/06/03 00:04:47;;;;;;;7.53;4.17;;;;;;;15.21;62.75;100713.56;4916559;29;20133;-63
2021/06/03 00:07:15;;;;;;;7.37;2.37;;;;;;;15.19;62.57;100719.50;4916627;29;20092;-63
2021/06/03 00:09:42;;;;;;;9.33;2.20;;;;;;;15.18;62.70;100717.84;4916557;29;20447;-62
2021/06/03 00:12:10;;;;;;;14.97;4.60;;;;;;;15.10;62.65;100707.28;4916184;29;20079;-62
2021/06/03 00:14:37;;;;;;;6.77;2.63;;;;;;;15.10;62.36;100701.66;4916293;29;20052;-62
2021/06/03 00:17:04;;;;;;;13.83;4.77;;;;;;;14.92;62.38;100676.06;4915953;29;20417;-61
2021/06/03 00:19:32;;;;;;;12.17;5.70;;;;;;;15.06;62.26;100701.44;4920077;29;20048;-62
2021/06/03 00:21:59;;;;;;;9.47;4.57;;;;;;;15.11;62.26;100709.81;4919521;29;20048;-61
2021/06/03 00:24:26;;;;;;;9.07;5.10;;;;;;;15.00;62.49;100699.00;4919707;29;20048;-62
2021/06/03 00:26:53;;;;;;;10.70;5.10;;;;;;;14.98;62.52;100712.56;4919983;29;20127;-62
2021/06/03 00:29:19;;;;;;;8.63;4.77;;;;;;;14.99;62.62;100717.03;4920128;29;20505;-61
2021/06/03 00:31:46;;;;;;;11.67;5.03;;;;;;;14.95;62.55;100715.97;4919764;29;20135;-62
2021/06/03 00:34:13;;;;;;;10.90;4.70;;;;;;;14.90;62.41;100712.09;4919858;29;20091;-61
2021/06/03 00:36:40;;;;;;;10.77;4.60;;;;;;;14.67;62.45;100670.88;4919686;29;20142;-63
2021/06/03 00:39:07;;;;;;;12.80;4.10;;;;;;;14.92;62.34;100720.22;4919319;29;20135;-61
2021/06/03 00:41:34;;;;;;;10.07;3.53;;;;;;;14.89;62.29;100716.06;4918455;29;20131;-61
2021/06/03 00:44:02;;;;;;;12.83;3.93;;;;;;;14.84;62.38;100718.97;4902559;29;20084;-60
2021/06/03 00:46:29;;;;;;;6.43;3.03;;;;;;;14.74;62.61;100693.81;4919271;29;20552;-61
2021/06/03 00:48:57;;;;;;;7.53;3.80;;;;;;;14.89;62.43;100716.06;4902971;29;20452;-60
2021/06/03 00:51:26;;;;;;;8.23;2.90;;;;;;;14.90;62.38;100723.34;4919998;29;20127;-61
2021/06/03 00:53:54;;;;;;;10.55;2.15;;;;;;;14.89;62.29;100716.06;4919567;29;20131;-61
2021/06/03 00:56:21;;;;;;;4.70;2.93;;;;;;;14.79;62.45;100715.38;4902473;29;20135;-61
2021/06/03 00:58:48;;;;;;;4.83;2.80;;;;;;;14.54;62.29;100680.06;4918911;29;20138;-62
2021/06/03 01:01:15;;;;;;;4.50;2.33;;;;;;;14.80;62.52;100725.47;4918989;29;20131;-62
2021/06/03 01:03:42;;;;;;;5.00;2.07;;;;;;;14.81;62.34;100725.19;4918960;29;20052;-61
2021/06/03 01:06:11;;;;;;;9.17;2.43;;;;;;;14.82;62.35;100721.22;4918968;29;20098;-60
2021/06/03 01:08:46;;;;;;;5.10;1.90;;;;;;;14.82;62.33;100721.22;4918808;29;20210;-63
2021/06/03 01:11:24;;;;;;;5.33;1.87;;;;;;;14.75;62.38;100712.34;4919029;29;20083;-62
2021/06/03 01:14:01;;;;;;;5.27;1.67;;;;;;;14.75;62.42;100711.50;4918776;29;20063;-60
2021/06/03 01:16:30;;;;;;;9.93;1.60;;;;;;;14.79;62.29;100721.84;4919015;29;20465;-62
2021/06/03 01:18:59;;;;;;;6.03;1.58;;;;;;;14.72;62.10;100714.94;4919005;29;20123;-64
2021/06/03 01:21:29;;;;;;;5.37;1.57;;;;;;;14.76;62.28;100722.44;4918974;29;20079;-60
2021/06/03 01:24:21;;;;;;;4.55;1.90;;;;;;;14.74;62.27;100723.91;4918709;29;20059;-60
2021/06/03 01:26:48;;;;;;;3.03;1.30;;;;;;;14.62;62.25;100704.66;4918491;29;20130;-60
2021/06/03 01:29:17;;;;;;;5.33;1.70;;;;;;;14.70;62.26;100718.06;4918023;29;20123;-61
2021/06/03 01:31:49;;;;;;;8.13;1.23;;;;;;;14.67;62.31;100715.84;4918526;29;20135;-63
2021/06/03 01:34:19;;;;;;;6.50;1.60;;;;;;;14.55;62.12;100704.22;4918221;29;20052;-63
2021/06/03 01:36:47;;;;;;;5.65;1.52;;;;;;;14.63;62.67;100726.00;4918721;29;20131;-63
2021/06/03 01:39:15;;;;;;;3.67;1.40;;;;;;;14.56;62.34;100712.34;4919010;29;20222;-64
2021/06/03 01:41:42;;;;;;;4.37;1.60;;;;;;;14.54;62.53;100717.44;4901349;29;20127;-60
2021/06/03 01:44:09;;;;;;;2.40;1.20;;;;;;;14.53;62.59;100720.53;4918277;29;20056;-61
2021/06/03 01:46:37;;;;;;;2.10;1.10;;;;;;;14.55;62.44;100721.09;4918395;29;20079;-61
2021/06/03 01:49:05;;;;;;;10.20;1.40;;;;;;;14.51;62.68;100720.03;4919165;29;20052;-62
2021/06/03 01:51:32;;;;;;;4.97;1.50;;;;;;;14.36;62.56;100693.78;4917998;29;20131;-62
2021/06/03 01:54:00;;;;;;;11.80;1.57;;;;;;;14.48;62.67;100714.97;4901101;29;20052;-62
2021/06/03 01:56:27;;;;;;;8.83;2.33;;;;;;;14.44;62.64;100721.19;4901454;29;20139;-61
2021/06/03 01:58:57;;;;;;;5.83;2.50;;;;;;;14.30;62.63;100702.59;4918275;29;20059;-62
2021/06/03 02:01:24;;;;;;;8.20;2.60;;;;;;;14.30;62.84;100700.59;4901098;29;20569;-62
2021/06/03 02:03:51;;;;;;;9.27;3.77;;;;;;;14.29;62.83;100701.75;4918288;29;20092;-62
2021/06/03 02:06:18;;;;;;;4.53;1.67;;;;;;;14.43;62.79;100722.34;4917835;29;20087;-62
2021/06/03 02:08:45;;;;;;;9.40;2.50;;;;;;;14.20;62.69;100690.34;4918025;29;20052;-62
2021/06/03 02:11:12;;;;;;;4.77;2.07;;;;;;;14.33;62.74;100707.59;4917864;29;20143;-62
2021/06/03 02:13:43;;;;;;;6.60;2.50;;;;;;;14.32;62.96;100706.75;4917590;29;20143;-62
2021/06/03 02:16:13;;;;;;;3.53;1.87;;;;;;;14.34;62.86;100717.69;4917676;29;20052;-61
2021/06/03 02:18:43;;;;;;;8.93;2.70;;;;;;;14.32;62.89;100712.34;4917877;29;20129;-62
2021/06/03 02:21:10;;;;;;;;;;;;;;;14.38;62.75;100705.53;4901140;29;20099;-61
2021/06/03 02:23:37;;;;;;;6.50;2.30;;;;;;;14.14;63.03;100682.28;4918400;29;19962;-62
2021/06/03 02:26:04;;;;;;;5.80;2.60;;;;;;;14.29;63.02;100713.00;4917748;29;20127;-62
2021/06/03 02:28:33;;;;;;;11.53;2.30;;;;;;;14.13;63.10;100680.63;4917251;29;20084;-62
2021/06/03 02:31:00;;;;;;;11.83;2.37;;;;;;;14.30;63.21;100706.22;4917342;29;20510;-61
2021/06/03 02:33:28;;;;;;;13.17;2.97;;;;;;;14.18;63.20;100683.34;4918318;29;20048;-61
2021/06/03 02:35:56;;;;;;;5.20;2.07;;;;;;;14.11;63.00;100668.84;4917448;29;20141;-61
2021/06/03 02:38:29;;;;;;;4.43;2.27;;;;;;;14.05;63.17;100672.84;4917144;29;20056;-59
2021/06/03 02:40:59;;;;;;;4.57;1.80;;;;;;;14.27;63.00;100704.00;4916817;29;20086;-60
2021/06/03 02:43:26;;;;;;;;;;;;;;;14.29;62.84;100707.38;4917454;29;20553;-61
2021/06/03 02:45:54;;;;;;;7.00;2.43;;;;;;;14.26;63.02;100713.59;4917137;29;20033;-61
2021/06/03 02:48:21;;;;;;;12.23;2.30;;;;;;;14.24;63.21;100710.22;4917433;29;20055;-63
2021/06/03 02:50:48;;;;;;;4.83;1.43;;;;;;;14.22;63.38;100713.34;4917322;29;20102;-64
2021/06/03 02:53:16;;;;;;;4.87;1.80;;;;;;;14.18;63.35;100715.06;4917076;29;20135;-63
2021/06/03 02:55:43;;;;;;;5.90;1.43;;;;;;;14.15;63.63;100721.31;4917407;29;20075;-64
2021/06/03 02:58:10;;;;;;;5.70;1.77;;;;;;;14.07;63.33;100704.28;4917259;29;20453;-66
2021/06/03 03:00:37;;;;;;;4.67;1.63;;;;;;;14.17;63.35;100715.38;4916794;29;20138;-65
2021/06/03 03:03:06;;;;;;;7.77;3.53;;;;;;;14.22;63.32;100715.31;4917154;29;20048;-63
2021/06/03 03:05:33;;;;;;;9.60;2.03;;;;;;;14.03;63.35;100687.19;4916179;29;20136;-64
2021/06/03 03:08:00;;;;;;;4.93;1.53;;;;;;;14.23;63.29;100720.63;4915973;29;20139;-63
2021/06/03 03:10:34;;;;;;;5.47;1.70;;;;;;;14.10;63.08;100690.47;4916798;29;20056;-64
2021/06/03 03:13:01;;;;;;;7.07;1.67;;;;;;;14.01;63.01;100675.44;4916825;29;20048;-65
2021/06/03 03:15:28;;;;;;;4.00;1.50;;;;;;;14.27;63.17;100714.41;4916619;29;20139;-66
2021/06/03 03:17:55;;;;;;;5.00;1.60;;;;;;;14.19;63.09;100707.50;4916634;29;20466;-65
2021/06/03 03:20:25;;;;;;;2.50;1.23;;;;;;;14.28;63.15;100719.72;4900030;29;20087;-66
2021/06/03 03:22:52;;;;;;;4.72;1.40;;;;;;;14.21;63.20;100708.84;4916601;29;20049;-69
2021/06/03 03:25:21;;;;;;;4.27;1.67;;;;;;;14.29;63.20;100724.22;4916618;29;20130;-68
2021/06/03 03:27:49;;;;;;;2.23;1.57;;;;;;;14.26;63.12;100712.75;4899846;29;20560;-67
2021/06/03 03:30:19;;;;;;;3.47;1.63;;;;;;;14.29;63.12;100723.38;4916944;29;20056;-68
2021/06/03 03:32:46;;;;;;;6.22;1.20;;;;;;;14.25;63.11;100714.72;4916700;29;20103;-68
2021/06/03 03:35:14;;;;;;;2.93;1.40;;;;;;;14.23;63.19;100726.25;4916537;29;20139;-67
2021/06/03 03:37:42;;;;;;;3.40;1.60;;;;;;;13.52;63.05;100604.47;4916498;29;20569;-68
2021/06/03 03:40:14;;;;;;;4.50;2.00;;;;;;;14.15;63.22;100707.28;4916574;29;20131;-67
2021/06/03 03:42:41;;;;;;;3.90;1.97;;;;;;;14.07;63.26;100702.31;4916472;29;20569;-67
2021/06/03 03:45:11;;;;;;;3.03;1.23;;;;;;;14.10;63.17;100709.31;4916437;29;20083;-67
2021/06/03 03:47:38;;;;;;;;;;;;;;;14.12;62.98;100702.25;4917244;29;20464;-67
2021/06/03 03:50:10;;;;;;;6.07;2.27;;;;;;;14.08;63.20;100705.94;4916907;29;19945;-60
2021/06/03 03:52:38;;;;;;;4.20;1.77;;;;;;;13.86;63.32;100676.47;4917155;29;20083;-62
2021/06/03 03:55:07;;;;;;;10.73;2.13;;;;;;;14.01;63.48;100699.88;4920086;29;20135;-62
2021/06/03 03:57:35;;;;;;;5.07;1.77;;;;;;;13.76;63.42;100670.97;4920191;29;20449;-63
2021/06/03 04:00:11;;;;;;;4.83;1.60;;;;;;;13.83;63.59;100676.22;4919916;29;20499;-62
2021/06/03 04:02:38;;;;;;;5.63;1.60;;;;;;;13.77;63.34;100678.25;4920258;29;20131;-69
2021/06/03 04:05:06;;;;;;;5.63;1.60;;;;;;;13.95;63.35;100711.16;4920752;29;20180;-63
2021/06/03 04:07:33;;;;;;;3.70;1.67;;;;;;;13.95;63.35;100713.97;4919865;29;20123;-60
2021/06/03 04:10:00;;;;;;;3.97;1.40;;;;;;;13.91;63.23;100712.91;4920161;29;20052;-61
2021/06/03 04:12:26;;;;;;;3.83;1.43;;;;;;;13.88;63.42;100721.06;4903237;29;20052;-60
2021/06/03 04:14:53;;;;;;;3.20;1.60;;;;;;;13.80;63.54;100708.53;4920202;29;20389;-60
2021/06/03 04:17:20;;;;;;;3.40;1.50;;;;;;;13.82;63.62;100717.50;4919876;29;20143;-60
2021/06/03 04:19:47;;;;;;;3.67;1.83;;;;;;;13.83;63.62;100726.75;4919611;29;20055;-60
2021/06/03 04:22:14;;;;;;;5.90;2.20;;;;;;;13.82;63.65;100727.91;4919900;29;20131;-61
2021/06/03 04:24:40;;;;;;;5.87;1.57;;;;;;;13.79;63.65;100726.50;4920052;29;20482;-61
2021/06/03 04:27:07;;;;;;;4.97;2.00;;;;;;;13.81;63.77;100721.44;4918893;29;20450;-61
2021/06/03 04:29:34;;;;;;;4.87;1.70;;;;;;;13.86;63.68;100727.00;4919782;29;20076;-59
2021/06/03 04:32:01;;;;;;;2.37;1.50;;;;;;;13.75;63.70;100717.03;4919773;29;20126;-59
2021/06/03 04:34:28;;;;;;;5.13;1.73;;;;;;;13.75;63.81;100734.69;4920446;29;20054;-59
2021/06/03 04:36:55;;;;;;;6.70;1.50;;;;;;;13.75;63.73;100736.66;4919394;29;20075;-63
2021/06/03 04:39:22;;;;;;;10.77;2.00;;;;;;;13.79;63.70;100734.09;4919386;29;20048;-60
2021/06/03 04:41:49;;;;;;;4.97;1.83;;;;;;;13.68;63.80;100720.19;4919535;29;20138;-61
2021/06/03 04:44:16;;;;;;;6.67;1.80;;;;;;;13.64;63.54;100707.88;4919332;29;20083;-60
2021/06/03 04:46:43;;;;;;;4.00;2.13;;;;;;;13.75;63.81;100731.06;4902446;29;20135;-60
2021/06/03 04:49:09;;;;;;;7.03;1.60;;;;;;;13.71;63.95;100741.22;4902496;29;20043;-59
2021/06/03 04:51:38;;;;;;;8.40;1.80;;;;;;;13.73;63.92;100739.75;4919166;29;20075;-61
2021/06/03 04:54:06;;;;;;;3.30;1.73;;;;;;;13.71;64.01;100747.66;4919121;29;20477;-63
2021/06/03 04:56:33;;;;;;;4.93;2.33;;;;;;;13.69;63.95;100743.47;4917954;29;20489;-60
2021/06/03 04:59:01;;;;;;;4.47;1.57;;;;;;;13.70;64.10;100742.31;4919595;29;20114;-60
2021/06/03 05:01:28;;;;;;;4.53;1.40;;;;;;;13.75;63.98;100745.09;4919202;29;20048;-60
2021/06/03 05:03:55;;;;;;;5.10;1.70;;;;;;;13.79;64.00;100748.13;4918923;29;20131;-65
2021/06/03 05:06:22;;;;;;;3.43;1.40;;;;;;;13.73;63.81;100738.94;4919204;29;20131;-60
2021/06/03 05:08:48;;;;;;;8.00;1.70;;;;;;;13.54;63.79;100707.13;4918738;29;20084;-60
2021/06/03 05:11:15;;;;;;;9.03;2.27;;;;;;;13.80;63.71;100752.63;4919169;29;20127;-60
2021/06/03 05:13:43;;;;;;;4.67;1.70;;;;;;;13.80;63.82;100753.44;4918931;29;20128;-61
2021/06/03 05:16:10;;;;;;;3.37;1.83;;;;;;;13.75;63.62;100742.28;4918689;29;20076;-61
2021/06/03 05:18:38;;;;;;;6.27;2.07;;;;;;;13.83;63.65;100749.22;4918729;29;20485;-69
2021/06/03 05:21:06;;;;;;;8.20;1.70;;;;;;;13.80;63.81;100745.03;4902169;29;20080;-70
2021/06/03 05:23:33;;;;;;;4.27;2.37;;;;;;;13.85;63.78;100742.19;4918847;29;20147;-59
2021/06/03 05:26:00;;;;;;;3.67;2.03;;;;;;;13.80;63.91;100733.78;4918751;29;20461;-60
2021/06/03 05:28:26;;;;;;;3.77;2.00;;;;;;;13.89;63.93;100748.84;4918861;29;20048;-62
2021/06/03 05:30:53;;;;;;;5.80;2.50;;;;;;;13.97;63.87;100751.00;4918216;29;20087;-60
2021/06/03 05:33:20;;;;;;;5.27;1.70;;;;;;;14.07;64.10;100749.22;4918443;29;20112;-60
2021/06/03 05:35:47;;;;;;;3.27;1.87;;;;;;;14.17;63.97;100754.72;4918324;29;20136;-59
2021/06/03 05:38:14;;;;;;;3.67;1.57;;;;;;;14.23;63.75;100743.09;4918165;29;20087;-59
2021/06/03 05:40:41;;;;;;;7.80;2.37;;;;;;;14.23;63.72;100731.88;4918525;29;20075;-60
2021/06/03 05:43:08;;;;;;;10.13;1.83;;;;;;;14.46;63.92;100751.78;4901525;29;20088;-60
2021/06/03 05:45:35;;;;;;;4.57;2.23;;;;;;;14.58;63.94;100754.19;4918278;29;20102;-60
2021/06/03 05:48:02;;;;;;;4.93;2.50;;;;;;;14.62;63.95;100739.22;4918307;29;20058;-60
2021/06/03 05:50:28;;;;;;;4.83;1.97;;;;;;;14.92;63.71;100753.97;4918026;29;20131;-60
2021/06/03 05:52:55;;;;;;;4.83;1.87;;;;;;;15.11;63.39;100768.00;4918489;29;20488;-61
2021/06/03 05:55:22;;;;;;;4.80;2.37;;;;;;;15.19;63.10;100742.00;4917869;29;20051;-60
2021/06/03 05:57:50;;;;;;;7.80;2.80;;;;;;;15.40;62.75;100754.56;4918317;29;20131;-61
2021/06/03 06:00:23;;;;;;;5.13;2.50;;;;;;;15.45;62.87;100750.81;4918174;29;20056;-60
2021/06/03 06:02:59;;;;;;;7.80;2.40;;;;;;;15.65;62.49;100763.72;4917767;29;20088;-60
2021/06/03 06:08:14;;;;;;;5.43;2.67;;;;;;;16.07;61.82;100770.28;4918261;29;20131;-64
2021/06/03 06:10:42;;;;;;;6.47;3.03;;;;;;;16.20;61.64;100760.97;4918080;29;20143;-64
2021/06/03 06:13:10;;;;;;;4.20;2.80;;;;;;;16.36;61.33;100764.31;4917689;29;20051;-64
2021/06/03 06:15:38;;;;;;;4.30;2.33;;;;;;;16.51;61.02;100760.31;4916847;29;20533;-62
2021/06/03 06:18:09;;;;;;;4.60;2.30;;;;;;;16.42;60.25;100756.59;4917458;29;20131;-62
2021/06/03 06:20:37;;;;;;;7.47;3.30;;;;;;;16.31;60.50;100768.09;4917993;29;20442;-61
2021/06/03 06:23:05;;;;;;;6.25;2.40;;;;;;;16.13;60.87;100763.38;4917272;29;20144;-59
2021/06/03 06:25:32;;;;;;;5.15;2.88;;;;;;;16.16;60.76;100774.03;4917540;29;20090;-62
2021/06/03 06:27:59;;;;;;;6.60;2.45;;;;;;;16.22;60.51;100775.59;4917735;29;20076;-61
2021/06/03 06:30:27;;;;;;;4.47;1.92;;;;;;;16.13;60.45;100745.63;4917433;29;20075;-61
2021/06/03 06:32:55;;;;;;;3.60;2.20;;;;;;;16.50;60.18;100778.41;4917487;29;20048;-59
2021/06/03 06:35:22;;;;;;;6.18;4.38;;;;;;;16.58;59.64;100777.63;4917598;29;20075;-61
2021/06/03 06:37:49;;;;;;;6.60;4.53;;;;;;;16.75;59.67;100760.97;4917645;29;20059;-73
2021/06/03 06:40:17;;;;;;;7.20;4.30;;;;;;;17.28;58.67;100771.50;4917020;29;20139;-72
2021/06/03 06:42:45;;;;;;;11.98;4.50;;;;;;;17.41;57.76;100710.50;4917331;29;20137;-72
2021/06/03 06:45:13;;;;;;;7.65;4.75;;;;;;;18.28;56.55;100775.09;4917277;29;20084;-72
2021/06/03 06:47:40;;;;;;;9.55;5.30;;;;;;;18.47;56.38;100770.00;4917179;29;20051;-72
2021/06/03 06:50:08;;;;;;;8.65;5.38;;;;;;;18.59;55.91;100764.53;4917186;29;20056;-71
2021/06/03 06:52:35;;;;;;;8.52;5.70;;;;;;;18.80;55.49;100780.91;4917337;29;20127;-72
2021/06/03 06:55:06;;;;;;;8.40;4.72;;;;;;;19.12;54.94;100773.94;4917050;29;20130;-72
2021/06/03 06:57:33;;;;;;;7.93;4.30;;;;;;;19.30;54.37;100769.13;4917469;29;20123;-71
2021/06/03 07:00:02;;;;;;;7.30;4.25;;;;;;;19.65;53.98;100779.25;4916951;29;20052;-72
2021/06/03 07:02:29;;;;;;;6.97;3.58;;;;;;;19.60;53.92;100796.41;4916103;29;20131;-72
2021/06/03 07:04:56;;;;;;;4.55;2.97;;;;;;;19.89;53.64;100792.03;4917243;29;20135;-72
2021/06/03 07:07:23;;;;;;;5.70;3.03;;;;;;;20.16;53.03;100790.75;4917280;29;20132;-71
2021/06/03 07:09:53;;;;;;;6.30;2.60;;;;;;;20.31;52.41;100783.72;4917112;29;20143;-71
2021/06/03 07:12:20;;;;;;;4.50;2.40;;;;;;;20.51;52.36;100787.78;4917060;29;20131;-71
2021/06/03 07:14:47;;;;;;;8.63;2.83;;;;;;;20.91;51.55;100791.06;4916927;29;20048;-71
2021/06/03 07:17:14;;;;;;;7.25;1.90;;;;;;;21.10;50.83;100758.53;4916665;29;20088;-71
2021/06/03 07:19:40;;;;;;;4.65;2.28;;;;;;;21.61;49.91;100790.50;4917178;29;20056;-71
2021/06/03 07:22:07;;;;;;;3.55;1.98;;;;;;;21.80;49.68;100796.47;4916526;29;20083;-70
2021/06/03 07:24:35;;;;;;;4.15;1.85;;;;;;;21.85;49.15;100784.06;4916601;29;20140;-71
2021/06/03 07:27:03;;;;;;;3.00;2.30;;;;;;;22.20;48.69;100793.06;4918155;29;20062;-70
2021/06/03 07:29:30;;;;;;;4.22;1.90;;;;;;;22.56;48.44;100806.44;4919913;29;20131;-70
2021/06/03 07:31:57;;;;;;;3.25;1.48;;;;;;;22.80;47.23;100805.59;4920068;29;20052;-70
2021/06/03 07:34:25;;;;;;;3.42;1.70;;;;;;;23.04;46.76;100799.09;4920233;29;20548;-70
2021/06/03 07:36:52;;;;;;;1.52;1.30;;;;;;;23.20;46.33;100802.03;4920146;29;20084;-70
2021/06/03 07:39:21;;;;;;;4.22;1.80;;;;;;;23.36;46.32;100791.53;4920494;29;20135;-70
2021/06/03 07:41:48;;;;;;;2.55;1.40;;;;;;;23.53;45.67;100809.53;4920517;29;20079;-71
2021/06/03 07:44:15;;;;;;;1.75;1.27;;;;;;;23.36;45.70;100785.81;4903365;29;20090;-70
2021/06/03 07:46:42;;;;;;;2.50;1.30;;;;;;;23.65;44.90;100793.16;4920592;29;20123;-70
2021/06/03 07:49:13;;;;;;;3.97;1.45;;;;;;;24.02;44.25;100797.88;4920234;29;20086;-70
2021/06/03 07:51:41;;;;;;;4.43;1.85;;;;;;;24.24;43.72;100800.13;4920431;29;20058;-70
2021/06/03 07:54:09;;;;;;;2.45;1.48;;;;;;;24.45;43.52;100811.28;4920282;29;20083;-70
2021/06/03 07:56:36;;;;;;;2.67;1.88;;;;;;;24.72;43.09;100811.56;4920106;29;20135;-70
2021/06/03 07:59:03;;;;;;;2.67;1.52;;;;;;;24.88;42.53;100812.34;4920210;29;20047;-70
2021/06/03 08:01:30;;;;;;;10.25;2.30;;;;;;;24.89;42.30;100810.28;4920233;29;20075;-71
2021/06/03 08:03:57;;;;;;;2.47;1.35;;;;;;;24.84;42.45;100817.13;4919949;29;20052;-70
2021/06/03 08:06:24;;;;;;;3.15;1.90;;;;;;;24.57;42.54;100793.22;4919800;29;20600;-70
2021/06/03 08:08:51;;;;;;;3.97;1.65;;;;;;;24.80;42.81;100817.06;4919744;29;20060;-70
2021/06/03 08:11:18;;;;;;;5.15;1.63;;;;;;;24.88;42.19;100805.78;4919870;29;20135;-70
2021/06/03 08:13:44;;;;;;;3.60;1.80;;;;;;;25.00;41.59;100819.97;4920128;29;20082;-70
2021/06/03 08:16:11;;;;;;;3.05;1.77;;;;;;;25.14;41.15;100828.91;4919407;29;20575;-70
2021/06/03 08:18:38;;;;;;;2.90;1.77;;;;;;;25.29;41.39;100825.16;4919653;29;20083;-70
2021/06/03 08:21:05;;;;;;;4.43;1.60;;;;;;;25.36;40.72;100813.03;4919939;29;20135;-69
2021/06/03 08:23:32;;;;;;;2.55;1.50;;;;;;;25.55;40.53;100829.41;4919424;29;20140;-70
2021/06/03 08:25:59;;;;;;;2.65;1.75;;;;;;;25.56;40.59;100825.31;4904016;29;20094;-70
2021/06/03 08:28:28;;;;;;;6.47;1.95;;;;;;;25.39;40.18;100822.91;4919584;29;20052;-70
2021/06/03 08:30:57;;;;;;;5.57;1.55;;;;;;;25.42;40.76;100827.88;4919742;29;20492;-70
2021/06/03 08:33:25;;;;;;;2.20;1.42;;;;;;;25.43;40.42;100810.34;4919366;29;20052;-70
2021/06/03 08:35:52;;;;;;;4.90;1.60;;;;;;;25.47;40.27;100834.13;4919417;29;20135;-70
2021/06/03 08:38:19;;;;;;;2.38;1.27;;;;;;;25.58;39.69;100825.78;4919016;29;20135;-79
2021/06/03 08:40:53;;;;;;;3.17;1.80;;;;;;;25.66;39.62;100819.00;4919335;29;20143;-70
2021/06/03 08:43:23;;;;;;;3.38;1.60;;;;;;;25.86;39.10;100821.88;4919480;29;20139;-70
2021/06/03 08:45:50;;;;;;;2.00;1.50;;;;;;;26.08;38.90;100831.69;4919863;29;20580;-70
2021/06/03 08:48:17;;;;;;;4.53;1.65;;;;;;;26.14;38.89;100828.16;4919470;29;20052;-71
2021/06/03 08:50:47;;;;;;;3.42;1.50;;;;;;;26.47;38.39;100829.59;4919390;29;20462;-71
2021/06/03 08:53:14;;;;;;;2.58;1.52;;;;;;;26.07;37.97;100822.28;4919016;29;20076;-72
2021/06/03 08:58:31;;;;;;;5.70;1.95;;;;;;;25.98;38.23;100841.72;4919442;29;20075;-72
2021/06/03 09:01:00;;;;;;;3.40;1.75;;;;;;;26.22;37.93;100846.28;4919911;29;20139;-71
2021/06/03 09:03:28;;;;;;;;;;;;;;;26.34;39.90;100836.69;4919607;29;20386;-72
2021/06/03 09:05:56;;;;;;;2.88;1.67;;;;;;;26.72;38.45;100852.13;4918978;29;19930;-72
2021/06/03 09:08:35;;;;;;;2.17;1.63;;;;;;;26.81;37.92;100812.56;4919182;29;20462;-72
2021/06/03 09:11:14;;;;;;;3.17;1.55;;;;;;;27.30;37.78;100832.56;4919274;29;20059;-70
2021/06/03 09:13:45;;;;;;;3.45;1.27;;;;;;;27.54;37.33;100828.38;4918785;29;20048;-71
2021/06/03 09:16:12;;;;;;;2.10;1.13;;;;;;;27.63;36.61;100834.66;4918990;29;20241;-72
2021/06/03 09:18:48;;;;;;;2.92;1.65;;;;;;;27.67;36.67;100828.16;4918734;29;20056;-72
2021/06/03 09:21:26;;;;;;;3.50;1.42;;;;;;;27.39;36.30;100829.44;4918696;29;20136;-72
2021/06/03 09:24:04;;;;;;;4.25;1.30;;;;;;;27.32;36.65;100840.81;4901909;29;20509;-72
2021/06/03 09:26:37;;;;;;;1.63;1.05;;;;;;;27.27;36.31;100826.78;4918891;29;20072;-72
2021/06/03 09:29:05;;;;;;;2.25;1.35;;;;;;;26.99;36.62;100827.16;4919084;29;20052;-71
2021/06/03 09:31:34;;;;;;;1.80;1.42;;;;;;;26.64;36.68;100829.09;4918575;29;20083;-73
2021/06/03 09:34:07;;;;;;;1.38;1.10;;;;;;;26.20;37.33;100831.53;4918553;29;20497;-71
2021/06/03 09:36:48;;;;;;;2.53;1.40;;;;;;;25.96;38.01;100821.28;4918432;29;20520;-73
2021/06/03 09:39:27;;;;;;;2.33;1.52;;;;;;;25.82;37.57;100833.25;4918522;29;20488;-72
2021/06/03 09:42:02;;;;;;;2.70;1.48;;;;;;;25.97;37.78;100828.63;4918399;29;20048;-72
2021/06/03 09:44:39;;;;;;;1.48;1.20;;;;;;;26.03;36.93;100824.28;4919020;29;20480;-72
2021/06/03 09:47:33;;;;;;;1.88;1.27;;;;;;;25.70;37.46;100824.78;4918550;29;20120;-73
2021/06/03 09:50:00;;;;;;;2.42;1.20;;;;;;;25.43;37.55;100826.66;4917505;29;20056;-70
2021/06/03 09:52:30;;;;;;;2.72;1.40;;;;;;;25.46;37.62;100831.63;4918063;29;20512;-72
2021/06/03 09:55:12;;;;;;;3.30;1.10;;;;;;;25.67;37.20;100820.66;4918423;29;20052;-72
2021/06/03 09:57:44;;;;;;;5.00;1.67;;;;;;;25.70;37.86;100817.03;4918361;29;20052;-72
2021/06/03 10:00:18;;;;;;;3.20;1.58;;;;;;;26.31;36.86;100826.81;4918305;29;20060;-73
2021/06/03 10:02:45;;;;;;;2.95;1.52;;;;;;;26.90;36.16;100821.69;4918219;29;20127;-72
2021/06/03 10:05:19;;;;;;;1.90;1.70;;;;;;;27.41;36.06;100832.72;4918174;29;20146;-72
2021/06/03 10:07:57;;;;;;;2.83;1.67;;;;;;;27.49;35.59;100825.03;4918217;29;20155;-73
2021/06/03 10:10:26;;;;;;;2.63;1.50;;;;;;;27.44;35.06;100831.94;4918139;29;20422;-73
2021/06/03 10:12:54;;;;;;;4.22;1.20;;;;;;;27.04;35.53;100829.69;4917842;29;20523;-73
2021/06/03 10:15:22;;;;;;;3.25;1.88;;;;;;;26.90;35.48;100836.84;4917790;29;20553;-72
2021/06/03 10:17:58;;;;;;;3.13;1.63;;;;;;;26.97;35.14;100830.41;4917684;29;20059;-71
2021/06/03 10:20:41;;;;;;;3.78;1.85;;;;;;;26.91;35.76;100811.91;4917516;29;20142;-70
2021/06/03 10:23:20;;;;;;;1.77;1.35;;;;;;;26.78;35.29;100821.94;4918138;29;20088;-71
2021/06/03 10:25:50;;;;;;;2.85;1.80;;;;;;;26.51;35.67;100823.94;4917553;29;20044;-71
2021/06/03 10:28:19;;;;;;;;;;;;;;;26.20;37.48;100829.50;4918374;29;20078;-71
2021/06/03 10:30:49;;;;;;;2.30;1.95;;;;;;;26.10;36.38;100823.56;4917694;29;20060;-71
2021/06/03 10:33:21;;;;;;;3.05;2.10;;;;;;;25.90;36.68;100823.59;4917326;29;20094;-71
2021/06/03 10:36:04;;;;;;;3.88;1.80;;;;;;;26.23;37.04;100825.88;4917250;29;20052;-65
2021/06/03 10:38:32;;;;;;;5.80;2.28;;;;;;;26.40;36.58;100836.00;4917062;29;20140;-65
2021/06/03 10:41:02;;;;;;;2.95;1.50;;;;;;;26.57;36.83;100808.91;4917559;29;20142;-65
2021/06/03 10:43:35;;;;;;;3.35;1.58;;;;;;;26.06;37.02;100797.75;4917741;29;20134;-64
2021/06/03 10:46:07;;;;;;;4.07;2.03;;;;;;;26.02;37.07;100818.91;4917244;29;20481;-62
2021/06/03 10:48:34;;;;;;;3.88;1.65;;;;;;;26.19;37.35;100810.69;4917193;29;20404;-63
2021/06/03 10:51:07;;;;;;;10.45;5.40;;;;;;;26.42;37.76;100809.84;4917168;29;20058;-70
2021/06/03 10:53:34;;;;;;;6.47;2.90;;;;;;;26.80;37.39;100802.31;4917284;29;20088;-70
2021/06/03 10:56:14;;;;;;;2.95;1.95;;;;;;;27.17;36.51;100823.38;4916770;29;20058;-69
2021/06/03 10:58:45;;;;;;;8.82;1.77;;;;;;;27.24;35.85;100825.50;4916778;29;20464;-70
2021/06/03 11:01:15;;;;;;;4.35;1.85;;;;;;;27.22;36.24;100807.88;4916587;29;20100;-69
2021/06/03 11:03:48;;;;;;;;;;;;;;;27.17;37.59;100816.81;4917588;29;20413;-70
2021/06/03 11:06:18;;;;;;;3.80;1.70;;;;;;;26.98;36.79;100814.06;4917292;29;20324;-70
2021/06/03 11:09:08;;;;;;;3.83;1.60;;;;;;;26.85;36.92;100816.31;4917054;29;20072;-71
2021/06/03 11:11:47;;;;;;;3.65;2.08;;;;;;;26.68;36.96;100811.94;4917155;29;20084;-70
2021/06/03 11:14:19;;;;;;;3.25;1.80;;;;;;;26.52;37.68;100808.41;4916961;29;20131;-70
2021/06/03 11:16:53;;;;;;;7.30;2.22;;;;;;;26.68;37.55;100801.31;4916604;29;20143;-68
2021/06/03 11:19:25;;;;;;;3.17;1.85;;;;;;;26.63;37.65;100761.56;4917021;29;20550;-68
2021/06/03 11:21:54;;;;;;;5.45;2.15;;;;;;;26.73;37.39;100802.19;4916616;29;20084;-68
2021/06/03 11:24:24;;;;;;;2.33;1.90;;;;;;;26.96;37.24;100817.28;4916651;29;20142;-70
2021/06/03 11:26:54;;;;;;;;;;;;;;;26.83;38.79;100810.94;4917317;29;20079;-61
2021/06/03 11:29:28;;;;;;;3.30;1.70;;;;;;;27.11;37.32;100815.47;4916526;29;19923;-72
2021/06/03 11:32:03;;;;;;;3.80;1.50;;;;;;;27.16;37.04;100800.84;4916655;29;20095;-68
2021/06/03 11:34:40;;;;;;;8.07;1.80;;;;;;;27.15;37.19;100797.16;4916672;29;20402;-67
2021/06/03 11:37:26;;;;;;;6.55;1.98;;;;;;;27.15;37.75;100797.16;4916566;29;20209;-72
2021/06/03 11:39:58;;;;;;;7.57;1.90;;;;;;;27.39;37.29;100795.00;4916293;29;20048;-62
2021/06/03 11:42:28;;;;;;;2.05;1.52;;;;;;;27.47;36.83;100810.25;4916332;29;20052;-69